sensor_id;sensor_type;location;lat;lon;timestamp;P1;durP1;ratioP1;P2;durP2;ratioP2
66946;SDS011;53853;51.982;5.928;2022-08-25T00:00:18;3.05;;;2.00;;
66946;SDS011;53853;51.982;5.928;2022-08-25T00:02:49;3.55;;;2.20;;
66946;SDS011;53853;51.982;5.928;2022-08-25T00:05:25;3.33;;;2.05;;
66946;SDS011;53853;51.982;5.928;2022-08-25T00:07:59;3.35;;;1.80;;
66946;SDS011;53853;51.982;5.928;2022-08-25T00:10:30;3.58;;;1.70;;
66946;SDS011;53853;51.982;5.928;2022-08-25T00:13:02;3.10;;;1.75;;
66946;SDS011;53853;51.982;5.928;2022-08-25T00:15:32;2.35;;;1.50;;
66946;SDS011;53853;51.982;5.928;2022-08-25T00:18:03;2.70;;;1.70;;
66946;SDS011;53853;51.982;5.928;2022-08-25T00:20:33;2.63;;;1.80;;
66946;SDS011;53853;51.982;5.928;2022-08-25T00:23:05;2.20;;;1.50;;
66946;SDS011;53853;51.982;5.928;2022-08-25T00:25:35;2.92;;;1.50;;
66946;SDS011;53853;51.982;5.928;2022-08-25T00:28:05;3.38;;;2.30;;
66946;SDS011;53853;51.982;5.928;2022-08-25T00:30:35;5.13;;;2.35;;
66946;SDS011;53853;51.982;5.928;2022-08-25T00:33:05;4.32;;;2.20;;
66946;SDS011;53853;51.982;5.928;2022-08-25T00:35:36;5.50;;;2.22;;
66946;SDS011;53853;51.982;5.928;2022-08-25T00:38:09;5.32;;;2.40;;
66946;SDS011;53853;51.982;5.928;2022-08-25T00:40:41;3.97;;;2.75;;
66946;SDS011;53853;51.982;5.928;2022-08-25T00:43:11;3.53;;;2.10;;
66946;SDS011;53853;51.982;5.928;2022-08-25T00:45:41;6.68;;;2.85;;
66946;SDS011;53853;51.982;5.928;2022-08-25T00:48:11;2.85;;;2.10;;
66946;SDS011;53853;51.982;5.928;2022-08-25T00:50:41;3.65;;;2.30;;
66946;SDS011;53853;51.982;5.928;2022-08-25T00:53:13;3.22;;;2.22;;
66946;SDS011;53853;51.982;5.928;2022-08-25T00:55:43;2.77;;;1.97;;
66946;SDS011;53853;51.982;5.928;2022-08-25T00:58:15;4.28;;;2.03;;
66946;SDS011;53853;51.982;5.928;2022-08-25T01:00:50;3.28;;;2.00;;
66946;SDS011;53853;51.982;5.928;2022-08-25T01:03:22;3.00;;;2.07;;
66946;SDS011;53853;51.982;5.928;2022-08-25T01:05:53;3.15;;;2.20;;
66946;SDS011;53853;51.982;5.928;2022-08-25T01:08:27;3.38;;;1.63;;
66946;SDS011;53853;51.982;5.928;2022-08-25T01:11:00;3.17;;;2.05;;
66946;SDS011;53853;51.982;5.928;2022-08-25T01:13:33;3.35;;;2.38;;
66946;SDS011;53853;51.982;5.928;2022-08-25T01:16:07;3.40;;;1.60;;
66946;SDS011;53853;51.982;5.928;2022-08-25T01:18:46;2.85;;;2.05;;
66946;SDS011;53853;51.982;5.928;2022-08-25T01:21:21;3.80;;;2.00;;
66946;SDS011;53853;51.982;5.928;2022-08-25T01:23:52;3.40;;;2.40;;
66946;SDS011;53853;51.982;5.928;2022-08-25T01:26:25;3.95;;;1.88;;
66946;SDS011;53853;51.982;5.928;2022-08-25T01:28:57;5.28;;;2.40;;
66946;SDS011;53853;51.982;5.928;2022-08-25T01:31:40;4.82;;;2.83;;
66946;SDS011;53853;51.982;5.928;2022-08-25T01:34:11;5.10;;;2.58;;
66946;SDS011;53853;51.982;5.928;2022-08-25T01:36:44;3.13;;;2.00;;
66946;SDS011;53853;51.982;5.928;2022-08-25T01:39:14;3.83;;;1.90;;
66946;SDS011;53853;51.982;5.928;2022-08-25T01:41:48;2.75;;;2.03;;
66946;SDS011;53853;51.982;5.928;2022-08-25T01:44:31;3.30;;;2.28;;
66946;SDS011;53853;51.982;5.928;2022-08-25T01:47:03;4.65;;;3.00;;
66946;SDS011;53853;51.982;5.928;2022-08-25T01:49:33;5.53;;;2.55;;
66946;SDS011;53853;51.982;5.928;2022-08-25T01:52:11;5.40;;;2.20;;
66946;SDS011;53853;51.982;5.928;2022-08-25T01:54:46;2.85;;;2.15;;
66946;SDS011;53853;51.982;5.928;2022-08-25T01:57:16;5.95;;;3.40;;
66946;SDS011;53853;51.982;5.928;2022-08-25T01:59:46;6.22;;;3.60;;
66946;SDS011;53853;51.982;5.928;2022-08-25T02:02:16;4.90;;;3.17;;
66946;SDS011;53853;51.982;5.928;2022-08-25T02:04:46;3.80;;;2.25;;
66946;SDS011;53853;51.982;5.928;2022-08-25T02:07:19;3.05;;;2.00;;
66946;SDS011;53853;51.982;5.928;2022-08-25T02:09:48;3.88;;;2.10;;
66946;SDS011;53853;51.982;5.928;2022-08-25T02:12:18;2.70;;;1.63;;
66946;SDS011;53853;51.982;5.928;2022-08-25T02:14:48;2.60;;;1.90;;
66946;SDS011;53853;51.982;5.928;2022-08-25T02:17:18;9.35;;;2.80;;
66946;SDS011;53853;51.982;5.928;2022-08-25T02:19:48;3.80;;;2.03;;
66946;SDS011;53853;51.982;5.928;2022-08-25T02:22:20;4.38;;;2.22;;
66946;SDS011;53853;51.982;5.928;2022-08-25T02:24:50;4.25;;;3.08;;
66946;SDS011;53853;51.982;5.928;2022-08-25T02:27:20;5.22;;;2.97;;
66946;SDS011;53853;51.982;5.928;2022-08-25T02:29:50;5.35;;;3.45;;
66946;SDS011;53853;51.982;5.928;2022-08-25T02:32:20;3.55;;;2.08;;
66946;SDS011;53853;51.982;5.928;2022-08-25T02:34:50;5.57;;;2.97;;
66946;SDS011;53853;51.982;5.928;2022-08-25T02:37:22;6.40;;;3.00;;
66946;SDS011;53853;51.982;5.928;2022-08-25T02:39:52;4.03;;;2.63;;
66946;SDS011;53853;51.982;5.928;2022-08-25T02:42:22;4.97;;;2.50;;
66946;SDS011;53853;51.982;5.928;2022-08-25T02:44:52;4.55;;;1.90;;
66946;SDS011;53853;51.982;5.928;2022-08-25T02:47:22;3.35;;;2.08;;
66946;SDS011;53853;51.982;5.928;2022-08-25T02:49:52;3.20;;;2.30;;
66946;SDS011;53853;51.982;5.928;2022-08-25T02:52:24;2.85;;;1.67;;
66946;SDS011;53853;51.982;5.928;2022-08-25T02:54:54;2.65;;;1.85;;
66946;SDS011;53853;51.982;5.928;2022-08-25T02:57:24;3.28;;;2.08;;
66946;SDS011;53853;51.982;5.928;2022-08-25T02:59:54;2.25;;;1.48;;
66946;SDS011;53853;51.982;5.928;2022-08-25T03:02:24;2.28;;;1.55;;
66946;SDS011;53853;51.982;5.928;2022-08-25T03:04:54;4.53;;;2.33;;
66946;SDS011;53853;51.982;5.928;2022-08-25T03:07:26;4.60;;;3.17;;
66946;SDS011;53853;51.982;5.928;2022-08-25T03:09:56;3.70;;;2.35;;
66946;SDS011;53853;51.982;5.928;2022-08-25T03:12:26;4.22;;;2.50;;
66946;SDS011;53853;51.982;5.928;2022-08-25T03:14:55;7.82;;;3.47;;
66946;SDS011;53853;51.982;5.928;2022-08-25T03:17:25;3.63;;;2.30;;
66946;SDS011;53853;51.982;5.928;2022-08-25T03:19:55;3.97;;;2.67;;
66946;SDS011;53853;51.982;5.928;2022-08-25T03:22:28;4.13;;;2.20;;
66946;SDS011;53853;51.982;5.928;2022-08-25T03:24:58;4.97;;;2.35;;
66946;SDS011;53853;51.982;5.928;2022-08-25T03:27:40;4.00;;;2.40;;
66946;SDS011;53853;51.982;5.928;2022-08-25T03:30:10;3.60;;;1.90;;
66946;SDS011;53853;51.982;5.928;2022-08-25T03:32:40;4.20;;;2.00;;
66946;SDS011;53853;51.982;5.928;2022-08-25T03:35:11;4.30;;;2.40;;
66946;SDS011;53853;51.982;5.928;2022-08-25T03:37:43;4.70;;;2.58;;
66946;SDS011;53853;51.982;5.928;2022-08-25T03:40:14;3.53;;;2.45;;
66946;SDS011;53853;51.982;5.928;2022-08-25T03:42:45;3.95;;;2.72;;
66946;SDS011;53853;51.982;5.928;2022-08-25T03:45:15;2.70;;;2.10;;
66946;SDS011;53853;51.982;5.928;2022-08-25T03:47:46;2.95;;;2.08;;
66946;SDS011;53853;51.982;5.928;2022-08-25T03:50:18;3.75;;;2.20;;
66946;SDS011;53853;51.982;5.928;2022-08-25T03:52:53;4.60;;;2.72;;
66946;SDS011;53853;51.982;5.928;2022-08-25T03:55:24;3.10;;;2.17;;
66946;SDS011;53853;51.982;5.928;2022-08-25T03:57:54;4.40;;;2.35;;
66946;SDS011;53853;51.982;5.928;2022-08-25T04:00:24;4.03;;;2.22;;
66946;SDS011;53853;51.982;5.928;2022-08-25T04:02:54;3.33;;;2.20;;
66946;SDS011;53853;51.982;5.928;2022-08-25T04:05:24;3.00;;;2.08;;
66946;SDS011;53853;51.982;5.928;2022-08-25T04:07:56;5.93;;;2.40;;
66946;SDS011;53853;51.982;5.928;2022-08-25T04:10:26;3.08;;;2.33;;
66946;SDS011;53853;51.982;5.928;2022-08-25T04:12:56;3.78;;;2.42;;
66946;SDS011;53853;51.982;5.928;2022-08-25T04:15:27;4.05;;;2.67;;
66946;SDS011;53853;51.982;5.928;2022-08-25T04:17:56;2.75;;;1.75;;
66946;SDS011;53853;51.982;5.928;2022-08-25T04:20:26;4.60;;;2.53;;
66946;SDS011;53853;51.982;5.928;2022-08-25T04:22:59;3.83;;;2.58;;
66946;SDS011;53853;51.982;5.928;2022-08-25T04:25:28;4.13;;;3.17;;
66946;SDS011;53853;51.982;5.928;2022-08-25T04:27:58;4.22;;;2.67;;
66946;SDS011;53853;51.982;5.928;2022-08-25T04:30:28;3.30;;;2.70;;
66946;SDS011;53853;51.982;5.928;2022-08-25T04:32:58;3.55;;;2.35;;
66946;SDS011;53853;51.982;5.928;2022-08-25T04:35:28;4.47;;;2.40;;
66946;SDS011;53853;51.982;5.928;2022-08-25T04:38:00;5.50;;;3.20;;
66946;SDS011;53853;51.982;5.928;2022-08-25T04:40:30;4.65;;;2.55;;
66946;SDS011;53853;51.982;5.928;2022-08-25T04:43:00;6.85;;;4.22;;
66946;SDS011;53853;51.982;5.928;2022-08-25T04:45:30;4.00;;;2.83;;
66946;SDS011;53853;51.982;5.928;2022-08-25T04:48:03;4.63;;;2.30;;
66946;SDS011;53853;51.982;5.928;2022-08-25T04:50:36;8.13;;;4.55;;
66946;SDS011;53853;51.982;5.928;2022-08-25T04:53:09;4.63;;;3.28;;
66946;SDS011;53853;51.982;5.928;2022-08-25T04:55:39;4.68;;;3.08;;
66946;SDS011;53853;51.982;5.928;2022-08-25T04:58:10;5.35;;;2.95;;
66946;SDS011;53853;51.982;5.928;2022-08-25T05:00:41;4.00;;;3.22;;
66946;SDS011;53853;51.982;5.928;2022-08-25T05:03:11;5.55;;;3.17;;
66946;SDS011;53853;51.982;5.928;2022-08-25T05:05:42;6.30;;;3.72;;
66946;SDS011;53853;51.982;5.928;2022-08-25T05:08:14;7.25;;;3.40;;
66946;SDS011;53853;51.982;5.928;2022-08-25T05:10:44;5.05;;;3.50;;
66946;SDS011;53853;51.982;5.928;2022-08-25T05:13:15;5.22;;;2.70;;
66946;SDS011;53853;51.982;5.928;2022-08-25T05:15:50;4.43;;;2.80;;
66946;SDS011;53853;51.982;5.928;2022-08-25T05:18:21;5.32;;;3.55;;
66946;SDS011;53853;51.982;5.928;2022-08-25T05:20:53;6.53;;;3.63;;
66946;SDS011;53853;51.982;5.928;2022-08-25T05:23:26;6.25;;;4.03;;
66946;SDS011;53853;51.982;5.928;2022-08-25T05:26:00;6.65;;;3.22;;
66946;SDS011;53853;51.982;5.928;2022-08-25T05:28:31;5.35;;;3.53;;
66946;SDS011;53853;51.982;5.928;2022-08-25T05:31:01;4.72;;;3.08;;
66946;SDS011;53853;51.982;5.928;2022-08-25T05:33:33;8.20;;;2.90;;
66946;SDS011;53853;51.982;5.928;2022-08-25T05:36:04;5.80;;;3.88;;
66946;SDS011;53853;51.982;5.928;2022-08-25T05:38:38;5.53;;;3.03;;
66946;SDS011;53853;51.982;5.928;2022-08-25T05:41:10;4.32;;;3.05;;
66946;SDS011;53853;51.982;5.928;2022-08-25T05:43:42;4.95;;;2.72;;
66946;SDS011;53853;51.982;5.928;2022-08-25T05:46:13;3.88;;;2.55;;
66946;SDS011;53853;51.982;5.928;2022-08-25T05:48:45;4.65;;;2.85;;
66946;SDS011;53853;51.982;5.928;2022-08-25T05:51:16;4.35;;;2.95;;
66946;SDS011;53853;51.982;5.928;2022-08-25T05:53:49;5.75;;;2.97;;
66946;SDS011;53853;51.982;5.928;2022-08-25T05:56:19;3.80;;;2.20;;
66946;SDS011;53853;51.982;5.928;2022-08-25T05:58:49;5.80;;;3.35;;
66946;SDS011;53853;51.982;5.928;2022-08-25T06:01:21;5.38;;;2.90;;
66946;SDS011;53853;51.982;5.928;2022-08-25T06:04:05;4.72;;;2.45;;
66946;SDS011;53853;51.982;5.928;2022-08-25T06:06:35;4.80;;;2.63;;
66946;SDS011;53853;51.982;5.928;2022-08-25T06:09:08;4.18;;;2.85;;
66946;SDS011;53853;51.982;5.928;2022-08-25T06:11:39;4.78;;;2.58;;
66946;SDS011;53853;51.982;5.928;2022-08-25T06:14:09;4.55;;;2.70;;
66946;SDS011;53853;51.982;5.928;2022-08-25T06:16:39;3.88;;;2.38;;
66946;SDS011;53853;51.982;5.928;2022-08-25T06:19:09;3.20;;;2.20;;
66946;SDS011;53853;51.982;5.928;2022-08-25T06:21:39;4.20;;;2.85;;
66946;SDS011;53853;51.982;5.928;2022-08-25T06:24:12;4.65;;;2.85;;
66946;SDS011;53853;51.982;5.928;2022-08-25T06:26:42;5.50;;;2.85;;
66946;SDS011;53853;51.982;5.928;2022-08-25T06:29:12;5.43;;;2.70;;
66946;SDS011;53853;51.982;5.928;2022-08-25T06:31:42;5.90;;;3.13;;
66946;SDS011;53853;51.982;5.928;2022-08-25T06:34:14;3.92;;;2.08;;
66946;SDS011;53853;51.982;5.928;2022-08-25T06:36:45;3.83;;;2.80;;
66946;SDS011;53853;51.982;5.928;2022-08-25T06:39:18;4.72;;;2.22;;
66946;SDS011;53853;51.982;5.928;2022-08-25T06:41:52;4.82;;;3.90;;
66946;SDS011;53853;51.982;5.928;2022-08-25T06:44:25;3.70;;;2.72;;
66946;SDS011;53853;51.982;5.928;2022-08-25T06:46:55;5.32;;;2.92;;
66946;SDS011;53853;51.982;5.928;2022-08-25T06:49:25;6.57;;;3.75;;
66946;SDS011;53853;51.982;5.928;2022-08-25T06:51:55;4.75;;;3.33;;
66946;SDS011;53853;51.982;5.928;2022-08-25T06:54:28;2.90;;;2.08;;
66946;SDS011;53853;51.982;5.928;2022-08-25T06:56:58;3.75;;;2.63;;
66946;SDS011;53853;51.982;5.928;2022-08-25T06:59:28;5.50;;;3.05;;
66946;SDS011;53853;51.982;5.928;2022-08-25T07:01:58;3.50;;;2.30;;
66946;SDS011;53853;51.982;5.928;2022-08-25T07:04:28;5.28;;;2.35;;
66946;SDS011;53853;51.982;5.928;2022-08-25T07:06:58;5.97;;;2.33;;
66946;SDS011;53853;51.982;5.928;2022-08-25T07:09:31;5.15;;;3.67;;
66946;SDS011;53853;51.982;5.928;2022-08-25T07:12:02;6.80;;;3.47;;
66946;SDS011;53853;51.982;5.928;2022-08-25T07:14:32;5.75;;;2.83;;
66946;SDS011;53853;51.982;5.928;2022-08-25T07:17:03;4.55;;;3.45;;
66946;SDS011;53853;51.982;5.928;2022-08-25T07:19:33;6.10;;;3.40;;
66946;SDS011;53853;51.982;5.928;2022-08-25T07:22:03;9.70;;;4.13;;
66946;SDS011;53853;51.982;5.928;2022-08-25T07:24:35;6.82;;;4.30;;
66946;SDS011;53853;51.982;5.928;2022-08-25T07:27:05;4.28;;;2.58;;
66946;SDS011;53853;51.982;5.928;2022-08-25T07:29:35;5.32;;;2.25;;
66946;SDS011;53853;51.982;5.928;2022-08-25T07:32:06;5.10;;;2.38;;
66946;SDS011;53853;51.982;5.928;2022-08-25T07:34:35;5.18;;;2.30;;
66946;SDS011;53853;51.982;5.928;2022-08-25T07:37:18;6.18;;;3.10;;
66946;SDS011;53853;51.982;5.928;2022-08-25T07:39:52;5.45;;;2.83;;
66946;SDS011;53853;51.982;5.928;2022-08-25T07:42:24;5.25;;;3.72;;
66946;SDS011;53853;51.982;5.928;2022-08-25T07:44:54;3.60;;;2.58;;
66946;SDS011;53853;51.982;5.928;2022-08-25T07:47:24;5.68;;;2.80;;
66946;SDS011;53853;51.982;5.928;2022-08-25T07:49:54;8.82;;;3.30;;
66946;SDS011;53853;51.982;5.928;2022-08-25T07:52:24;6.60;;;2.55;;
66946;SDS011;53853;51.982;5.928;2022-08-25T07:54:56;4.03;;;2.42;;
66946;SDS011;53853;51.982;5.928;2022-08-25T07:57:26;5.93;;;2.40;;
66946;SDS011;53853;51.982;5.928;2022-08-25T07:59:56;4.63;;;3.05;;
66946;SDS011;53853;51.982;5.928;2022-08-25T08:02:27;4.47;;;2.80;;
66946;SDS011;53853;51.982;5.928;2022-08-25T08:04:56;6.57;;;3.17;;
66946;SDS011;53853;51.982;5.928;2022-08-25T08:07:27;3.83;;;2.47;;
66946;SDS011;53853;51.982;5.928;2022-08-25T08:10:00;3.50;;;2.53;;
66946;SDS011;53853;51.982;5.928;2022-08-25T08:12:29;6.93;;;3.20;;
66946;SDS011;53853;51.982;5.928;2022-08-25T08:15:01;5.43;;;2.80;;
66946;SDS011;53853;51.982;5.928;2022-08-25T08:17:31;4.05;;;2.67;;
66946;SDS011;53853;51.982;5.928;2022-08-25T08:20:02;5.53;;;3.13;;
66946;SDS011;53853;51.982;5.928;2022-08-25T08:22:33;5.40;;;2.83;;
66946;SDS011;53853;51.982;5.928;2022-08-25T08:25:07;6.05;;;2.85;;
66946;SDS011;53853;51.982;5.928;2022-08-25T08:27:39;8.57;;;3.10;;
66946;SDS011;53853;51.982;5.928;2022-08-25T08:30:11;4.28;;;2.70;;
66946;SDS011;53853;51.982;5.928;2022-08-25T08:32:41;3.90;;;2.22;;
66946;SDS011;53853;51.982;5.928;2022-08-25T08:35:11;5.75;;;2.35;;
66946;SDS011;53853;51.982;5.928;2022-08-25T08:37:43;8.63;;;3.10;;
66946;SDS011;53853;51.982;5.928;2022-08-25T08:40:17;6.47;;;2.90;;
66946;SDS011;53853;51.982;5.928;2022-08-25T08:42:53;5.25;;;3.22;;
66946;SDS011;53853;51.982;5.928;2022-08-25T08:45:31;6.65;;;3.05;;
66946;SDS011;53853;51.982;5.928;2022-08-25T08:51:03;5.60;;;3.78;;
66946;SDS011;53853;51.982;5.928;2022-08-25T08:53:42;7.47;;;3.20;;
66946;SDS011;53853;51.982;5.928;2022-08-25T08:56:19;6.75;;;2.88;;
66946;SDS011;53853;51.982;5.928;2022-08-25T08:58:54;19.60;;;4.05;;
66946;SDS011;53853;51.982;5.928;2022-08-25T09:01:29;4.47;;;2.45;;
66946;SDS011;53853;51.982;5.928;2022-08-25T09:04:03;5.70;;;3.10;;
66946;SDS011;53853;51.982;5.928;2022-08-25T09:06:40;4.53;;;3.33;;
66946;SDS011;53853;51.982;5.928;2022-08-25T09:09:13;6.20;;;2.70;;
66946;SDS011;53853;51.982;5.928;2022-08-25T09:11:53;5.30;;;2.80;;
66946;SDS011;53853;51.982;5.928;2022-08-25T09:14:32;3.88;;;2.70;;
66946;SDS011;53853;51.982;5.928;2022-08-25T09:17:12;7.07;;;3.72;;
66946;SDS011;53853;51.982;5.928;2022-08-25T09:20:00;5.05;;;3.10;;
66946;SDS011;53853;51.982;5.928;2022-08-25T09:22:42;7.10;;;3.25;;
66946;SDS011;53853;51.982;5.928;2022-08-25T09:25:21;6.50;;;3.10;;
66946;SDS011;53853;51.982;5.928;2022-08-25T09:28:01;5.82;;;3.70;;
66946;SDS011;53853;51.982;5.928;2022-08-25T09:30:39;4.90;;;3.15;;
66946;SDS011;53853;51.982;5.928;2022-08-25T09:33:14;3.95;;;3.17;;
66946;SDS011;53853;51.982;5.928;2022-08-25T09:35:47;9.68;;;3.25;;
66946;SDS011;53853;51.982;5.928;2022-08-25T09:38:20;6.30;;;2.87;;
66946;SDS011;53853;51.982;5.928;2022-08-25T09:40:52;5.90;;;2.80;;
66946;SDS011;53853;51.982;5.928;2022-08-25T09:43:31;6.25;;;2.90;;
66946;SDS011;53853;51.982;5.928;2022-08-25T09:46:08;6.88;;;3.00;;
66946;SDS011;53853;51.982;5.928;2022-08-25T09:48:43;5.47;;;3.80;;
66946;SDS011;53853;51.982;5.928;2022-08-25T09:51:16;7.85;;;3.38;;
66946;SDS011;53853;51.982;5.928;2022-08-25T09:53:49;7.65;;;3.58;;
66946;SDS011;53853;51.982;5.928;2022-08-25T09:56:22;4.47;;;2.88;;
66946;SDS011;53853;51.982;5.928;2022-08-25T09:59:12;6.20;;;3.10;;
66946;SDS011;53853;51.982;5.928;2022-08-25T10:01:50;5.60;;;2.75;;
66946;SDS011;53853;51.982;5.928;2022-08-25T10:04:24;5.82;;;3.17;;
66946;SDS011;53853;51.982;5.928;2022-08-25T10:06:56;8.45;;;3.22;;
66946;SDS011;53853;51.982;5.928;2022-08-25T10:09:29;6.05;;;3.22;;
66946;SDS011;53853;51.982;5.928;2022-08-25T10:12:01;4.35;;;2.55;;
66946;SDS011;53853;51.982;5.928;2022-08-25T10:14:45;4.78;;;3.13;;
66946;SDS011;53853;51.982;5.928;2022-08-25T10:17:16;4.63;;;2.70;;
66946;SDS011;53853;51.982;5.928;2022-08-25T10:19:52;5.90;;;3.33;;
66946;SDS011;53853;51.982;5.928;2022-08-25T10:22:24;5.40;;;2.63;;
66946;SDS011;53853;51.982;5.928;2022-08-25T10:24:57;7.72;;;3.28;;
66946;SDS011;53853;51.982;5.928;2022-08-25T10:27:29;4.82;;;2.92;;
66946;SDS011;53853;51.982;5.928;2022-08-25T10:30:10;7.75;;;3.38;;
66946;SDS011;53853;51.982;5.928;2022-08-25T10:32:51;3.67;;;2.55;;
66946;SDS011;53853;51.982;5.928;2022-08-25T10:35:45;4.40;;;2.23;;
66946;SDS011;53853;51.982;5.928;2022-08-25T10:38:26;4.30;;;3.03;;
66946;SDS011;53853;51.982;5.928;2022-08-25T10:41:09;4.10;;;2.47;;
66946;SDS011;53853;51.982;5.928;2022-08-25T10:43:58;3.47;;;2.47;;
66946;SDS011;53853;51.982;5.928;2022-08-25T10:47:03;9.60;;;3.30;;
66946;SDS011;53853;51.982;5.928;2022-08-25T10:49:47;3.85;;;2.30;;
66946;SDS011;53853;51.982;5.928;2022-08-25T10:52:23;5.65;;;2.83;;
66946;SDS011;53853;51.982;5.928;2022-08-25T10:55:00;3.88;;;2.60;;
66946;SDS011;53853;51.982;5.928;2022-08-25T10:57:42;3.40;;;2.03;;
66946;SDS011;53853;51.982;5.928;2022-08-25T11:00:19;3.80;;;2.42;;
66946;SDS011;53853;51.982;5.928;2022-08-25T11:03:10;3.42;;;2.35;;
66946;SDS011;53853;51.982;5.928;2022-08-25T11:05:50;4.45;;;2.55;;
66946;SDS011;53853;51.982;5.928;2022-08-25T11:08:25;3.15;;;1.85;;
66946;SDS011;53853;51.982;5.928;2022-08-25T11:11:02;5.70;;;2.13;;
66946;SDS011;53853;51.982;5.928;2022-08-25T11:13:37;5.95;;;2.30;;
66946;SDS011;53853;51.982;5.928;2022-08-25T11:16:14;4.05;;;2.30;;
66946;SDS011;53853;51.982;5.928;2022-08-25T11:18:52;4.65;;;2.17;;
66946;SDS011;53853;51.982;5.928;2022-08-25T11:21:30;4.88;;;2.35;;
66946;SDS011;53853;51.982;5.928;2022-08-25T11:24:06;3.85;;;2.50;;
66946;SDS011;53853;51.982;5.928;2022-08-25T11:26:50;12.88;;;3.45;;
66946;SDS011;53853;51.982;5.928;2022-08-25T11:31:58;4.88;;;2.78;;
66946;SDS011;53853;51.982;5.928;2022-08-25T11:34:32;4.05;;;2.22;;
66946;SDS011;53853;51.982;5.928;2022-08-25T11:37:05;3.35;;;2.25;;
66946;SDS011;53853;51.982;5.928;2022-08-25T11:39:57;3.80;;;2.22;;
66946;SDS011;53853;51.982;5.928;2022-08-25T11:42:46;3.10;;;1.63;;
66946;SDS011;53853;51.982;5.928;2022-08-25T11:45:40;3.22;;;2.20;;
66946;SDS011;53853;51.982;5.928;2022-08-25T11:48:18;3.80;;;2.10;;
66946;SDS011;53853;51.982;5.928;2022-08-25T11:51:02;4.53;;;2.28;;
66946;SDS011;53853;51.982;5.928;2022-08-25T11:53:34;4.03;;;2.47;;
66946;SDS011;53853;51.982;5.928;2022-08-25T11:56:06;5.45;;;2.08;;
66946;SDS011;53853;51.982;5.928;2022-08-25T11:58:39;6.07;;;2.60;;
66946;SDS011;53853;51.982;5.928;2022-08-25T12:04:36;3.42;;;2.30;;
66946;SDS011;53853;51.982;5.928;2022-08-25T12:07:23;3.47;;;1.90;;
66946;SDS011;53853;51.982;5.928;2022-08-25T12:10:11;4.60;;;2.42;;
66946;SDS011;53853;51.982;5.928;2022-08-25T12:12:57;3.65;;;1.92;;
66946;SDS011;53853;51.982;5.928;2022-08-25T12:15:33;4.30;;;2.10;;
66946;SDS011;53853;51.982;5.928;2022-08-25T12:18:38;4.65;;;2.28;;
66946;SDS011;53853;51.982;5.928;2022-08-25T12:21:12;2.97;;;1.88;;
66946;SDS011;53853;51.982;5.928;2022-08-25T12:24:03;4.63;;;2.05;;
66946;SDS011;53853;51.982;5.928;2022-08-25T12:26:41;4.30;;;2.28;;
66946;SDS011;53853;51.982;5.928;2022-08-25T12:29:32;3.45;;;2.10;;
66946;SDS011;53853;51.982;5.928;2022-08-25T12:32:13;3.42;;;2.55;;
66946;SDS011;53853;51.982;5.928;2022-08-25T12:34:53;3.80;;;2.08;;
66946;SDS011;53853;51.982;5.928;2022-08-25T12:37:53;3.88;;;1.88;;
66946;SDS011;53853;51.982;5.928;2022-08-25T12:40:36;2.63;;;1.70;;
66946;SDS011;53853;51.982;5.928;2022-08-25T12:43:22;4.05;;;2.20;;
66946;SDS011;53853;51.982;5.928;2022-08-25T12:48:55;3.03;;;1.80;;
66946;SDS011;53853;51.982;5.928;2022-08-25T12:51:26;4.05;;;2.25;;
66946;SDS011;53853;51.982;5.928;2022-08-25T12:54:19;3.10;;;1.80;;
66946;SDS011;53853;51.982;5.928;2022-08-25T12:56:58;4.75;;;2.40;;
66946;SDS011;53853;51.982;5.928;2022-08-25T12:59:34;3.20;;;2.00;;
66946;SDS011;53853;51.982;5.928;2022-08-25T13:02:11;5.40;;;1.83;;
66946;SDS011;53853;51.982;5.928;2022-08-25T13:05:10;4.38;;;2.05;;
66946;SDS011;53853;51.982;5.928;2022-08-25T13:10:40;4.82;;;2.75;;
66946;SDS011;53853;51.982;5.928;2022-08-25T13:13:21;4.28;;;1.88;;
66946;SDS011;53853;51.982;5.928;2022-08-25T13:16:06;2.50;;;1.40;;
66946;SDS011;53853;51.982;5.928;2022-08-25T13:18:43;3.88;;;2.13;;
66946;SDS011;53853;51.982;5.928;2022-08-25T13:21:14;3.58;;;2.00;;
66946;SDS011;53853;51.982;5.928;2022-08-25T13:23:47;3.40;;;1.95;;
66946;SDS011;53853;51.982;5.928;2022-08-25T13:26:20;3.20;;;2.00;;
66946;SDS011;53853;51.982;5.928;2022-08-25T13:28:55;3.17;;;1.90;;
66946;SDS011;53853;51.982;5.928;2022-08-25T13:31:28;2.60;;;1.50;;
66946;SDS011;53853;51.982;5.928;2022-08-25T13:33:59;3.03;;;1.67;;
66946;SDS011;53853;51.982;5.928;2022-08-25T13:36:33;3.42;;;1.73;;
66946;SDS011;53853;51.982;5.928;2022-08-25T13:39:23;4.38;;;2.22;;
66946;SDS011;53853;51.982;5.928;2022-08-25T13:41:56;5.13;;;2.03;;
66946;SDS011;53853;51.982;5.928;2022-08-25T13:44:29;2.85;;;1.85;;
66946;SDS011;53853;51.982;5.928;2022-08-25T13:47:04;3.15;;;1.90;;
66946;SDS011;53853;51.982;5.928;2022-08-25T13:49:36;3.75;;;2.17;;
66946;SDS011;53853;51.982;5.928;2022-08-25T13:52:08;3.45;;;2.08;;
66946;SDS011;53853;51.982;5.928;2022-08-25T13:54:51;4.57;;;2.20;;
66946;SDS011;53853;51.982;5.928;2022-08-25T13:57:26;4.10;;;2.28;;
66946;SDS011;53853;51.982;5.928;2022-08-25T14:00:03;5.45;;;2.10;;
66946;SDS011;53853;51.982;5.928;2022-08-25T14:02:39;4.30;;;1.98;;
66946;SDS011;53853;51.982;5.928;2022-08-25T14:05:12;3.92;;;1.55;;
66946;SDS011;53853;51.982;5.928;2022-08-25T14:07:51;3.65;;;1.95;;
66946;SDS011;53853;51.982;5.928;2022-08-25T14:10:33;3.00;;;1.80;;
66946;SDS011;53853;51.982;5.928;2022-08-25T14:13:06;2.60;;;1.42;;
66946;SDS011;53853;51.982;5.928;2022-08-25T14:15:43;3.92;;;2.30;;
66946;SDS011;53853;51.982;5.928;2022-08-25T14:18:17;4.38;;;1.73;;
66946;SDS011;53853;51.982;5.928;2022-08-25T14:20:49;2.30;;;1.48;;
66946;SDS011;53853;51.982;5.928;2022-08-25T14:23:23;3.58;;;1.80;;
66946;SDS011;53853;51.982;5.928;2022-08-25T14:25:55;3.35;;;1.80;;
66946;SDS011;53853;51.982;5.928;2022-08-25T14:28:26;2.85;;;1.73;;
66946;SDS011;53853;51.982;5.928;2022-08-25T14:31:00;3.47;;;1.92;;
66946;SDS011;53853;51.982;5.928;2022-08-25T14:33:34;3.55;;;1.50;;
66946;SDS011;53853;51.982;5.928;2022-08-25T14:36:06;5.38;;;2.35;;
66946;SDS011;53853;51.982;5.928;2022-08-25T14:38:36;3.08;;;1.80;;
66946;SDS011;53853;51.982;5.928;2022-08-25T14:41:06;3.22;;;1.92;;
66946;SDS011;53853;51.982;5.928;2022-08-25T14:43:35;3.17;;;1.75;;
66946;SDS011;53853;51.982;5.928;2022-08-25T14:46:08;2.65;;;1.38;;
66946;SDS011;53853;51.982;5.928;2022-08-25T14:48:44;3.15;;;2.05;;
66946;SDS011;53853;51.982;5.928;2022-08-25T14:51:19;3.97;;;1.88;;
66946;SDS011;53853;51.982;5.928;2022-08-25T14:53:49;3.30;;;1.83;;
66946;SDS011;53853;51.982;5.928;2022-08-25T14:56:20;5.60;;;2.10;;
66946;SDS011;53853;51.982;5.928;2022-08-25T14:58:49;3.72;;;1.90;;
66946;SDS011;53853;51.982;5.928;2022-08-25T15:01:22;4.70;;;1.70;;
66946;SDS011;53853;51.982;5.928;2022-08-25T15:03:54;3.08;;;2.03;;
66946;SDS011;53853;51.982;5.928;2022-08-25T15:06:27;4.13;;;2.00;;
66946;SDS011;53853;51.982;5.928;2022-08-25T15:08:57;3.03;;;1.73;;
66946;SDS011;53853;51.982;5.928;2022-08-25T15:11:36;4.03;;;1.95;;
66946;SDS011;53853;51.982;5.928;2022-08-25T15:14:08;3.47;;;1.90;;
66946;SDS011;53853;51.982;5.928;2022-08-25T15:16:43;2.67;;;1.60;;
66946;SDS011;53853;51.982;5.928;2022-08-25T15:19:16;4.05;;;1.85;;
66946;SDS011;53853;51.982;5.928;2022-08-25T15:21:48;2.22;;;1.48;;
66946;SDS011;53853;51.982;5.928;2022-08-25T15:24:18;3.30;;;1.90;;
66946;SDS011;53853;51.982;5.928;2022-08-25T15:26:51;1.95;;;1.33;;
66946;SDS011;53853;51.982;5.928;2022-08-25T15:29:23;2.58;;;1.50;;
66946;SDS011;53853;51.982;5.928;2022-08-25T15:31:57;4.32;;;2.15;;
66946;SDS011;53853;51.982;5.928;2022-08-25T15:34:28;4.68;;;2.10;;
66946;SDS011;53853;51.982;5.928;2022-08-25T15:36:58;3.20;;;1.67;;
66946;SDS011;53853;51.982;5.928;2022-08-25T15:39:34;3.28;;;1.70;;
66946;SDS011;53853;51.982;5.928;2022-08-25T15:42:04;3.03;;;1.70;;